createdAt,value
2023-05-05T00:01:43.974Z,1.20
2023-05-05T00:06:45.655Z,1.70
2023-05-05T00:11:47.327Z,2.08
2023-05-05T00:16:49.073Z,1.50
2023-05-05T00:21:50.785Z,1.58
2023-05-05T00:26:52.486Z,1.30
2023-05-05T00:31:54.252Z,1.83
2023-05-05T00:36:56.268Z,1.40
2023-05-05T00:41:59.385Z,1.60
2023-05-05T00:47:01.380Z,1.60
2023-05-05T00:52:04.573Z,1.70
2023-05-05T00:57:06.702Z,1.60
2023-05-05T01:02:09.555Z,1.77
2023-05-05T01:07:41.101Z,1.90
2023-05-05T01:13:23.308Z,1.60
2023-05-05T01:18:31.408Z,1.52
2023-05-05T01:23:52.330Z,1.52
2023-05-05T01:29:16.511Z,1.80
2023-05-05T01:34:24.410Z,1.95
2023-05-05T01:39:31.347Z,2.13
2023-05-05T01:44:36.105Z,1.77
2023-05-05T01:49:38.559Z,1.65
2023-05-05T01:54:42.910Z,1.90
2023-05-05T02:04:48.070Z,2.10
2023-05-05T02:09:50.980Z,1.90
2023-05-05T02:14:53.985Z,2.13
2023-05-05T02:19:58.815Z,2.10
2023-05-05T02:25:00.845Z,2.17
2023-05-05T02:30:08.217Z,2.00
2023-05-05T02:35:26.753Z,1.85
2023-05-05T02:40:31.728Z,2.10
2023-05-05T02:45:34.039Z,2.67
2023-05-05T02:50:36.001Z,2.40
2023-05-05T02:55:52.437Z,2.70
2023-05-05T03:01:04.784Z,2.45
2023-05-05T03:06:19.541Z,2.17
2023-05-05T03:11:35.548Z,1.90
2023-05-05T03:16:42.721Z,2.45
2023-05-05T03:21:45.765Z,2.20
2023-05-05T03:26:49.440Z,2.10
2023-05-05T03:31:54.126Z,2.45
2023-05-05T03:36:56.199Z,1.92
2023-05-05T03:41:58.382Z,2.30
2023-05-05T03:47:04.321Z,2.28
2023-05-05T03:52:09.130Z,1.75
2023-05-05T03:57:11.821Z,1.35
2023-05-05T04:02:13.753Z,2.75
2023-05-05T04:07:15.667Z,3.38
2023-05-05T04:12:18.285Z,2.08
2023-05-05T04:17:20.663Z,2.10
2023-05-05T04:22:23.572Z,2.03
2023-05-05T04:27:26.202Z,2.10
2023-05-05T04:32:28.534Z,2.22
2023-05-05T04:37:30.477Z,2.55
2023-05-05T04:42:33.754Z,3.10
2023-05-05T04:47:40.408Z,3.17
2023-05-05T04:52:42.748Z,2.70
2023-05-05T04:57:44.536Z,2.10
2023-05-05T05:02:46.368Z,2.50
2023-05-05T05:07:48.130Z,2.45
2023-05-05T05:12:49.967Z,2.38
2023-05-05T05:17:51.847Z,2.17
2023-05-05T05:22:53.750Z,2.65
2023-05-05T05:28:08.970Z,2.05
2023-05-05T05:33:14.540Z,2.58
2023-05-05T05:38:17.915Z,2.70
2023-05-05T05:43:20.641Z,3.13
2023-05-05T05:48:24.817Z,3.10
2023-05-05T05:53:27.283Z,3.10
2023-05-05T05:58:29.920Z,2.30
2023-05-05T06:03:32.413Z,2.13
2023-05-05T06:08:34.287Z,3.13
2023-05-05T06:13:36.344Z,2.60
2023-05-05T06:18:38.714Z,2.33
2023-05-05T06:23:40.545Z,2.70
2023-05-05T06:28:42.683Z,2.10
2023-05-05T06:33:44.429Z,2.60
2023-05-05T06:38:46.197Z,2.50
2023-05-05T06:43:48.024Z,2.13
2023-05-05T06:48:50.134Z,2.20
2023-05-05T06:53:51.837Z,3.13
2023-05-05T06:58:53.534Z,2.55
2023-05-05T07:03:55.296Z,2.20
2023-05-05T07:08:57.900Z,2.58
2023-05-05T07:13:59.601Z,3.38
2023-05-05T07:19:01.536Z,3.03
2023-05-05T07:24:03.744Z,2.97
2023-05-05T07:29:07.134Z,3.15
2023-05-05T07:39:11.114Z,4.28
2023-05-05T07:44:13.020Z,4.72
2023-05-05T07:49:15.074Z,4.18
2023-05-05T07:54:17.550Z,4.30
2023-05-05T07:59:19.305Z,3.80
2023-05-05T08:04:21.129Z,4.70
2023-05-05T08:09:22.870Z,4.40
2023-05-05T08:14:24.592Z,4.43
2023-05-05T08:19:29.314Z,4.32
2023-05-05T08:24:32.247Z,3.63
2023-05-05T08:29:33.969Z,5.15
2023-05-05T08:34:35.801Z,4.88
2023-05-05T08:39:37.944Z,5.70
2023-05-05T08:44:39.743Z,4.90
2023-05-05T08:49:46.233Z,5.50
2023-05-05T08:55:09.615Z,5.30
2023-05-05T09:05:14.826Z,5.50
2023-05-05T09:10:16.808Z,6.40
2023-05-05T09:15:18.736Z,6.13
2023-05-05T09:20:20.560Z,5.03
2023-05-05T09:25:22.374Z,6.00
2023-05-05T09:30:25.956Z,5.75
2023-05-05T09:35:28.068Z,5.85
2023-05-05T09:40:48.506Z,5.00
2023-05-05T09:45:51.120Z,4.55
2023-05-05T09:50:53.110Z,6.55
2023-05-05T09:55:56.541Z,6.40
2023-05-05T10:00:59.113Z,5.97
2023-05-05T10:06:02.146Z,6.40
2023-05-05T10:11:06.812Z,5.40
2023-05-05T10:16:09.686Z,5.90
2023-05-05T10:21:13.854Z,6.68
2023-05-05T10:26:18.587Z,6.03
2023-05-05T10:31:39.092Z,5.50
2023-05-05T10:36:41.210Z,7.03
2023-05-05T10:41:43.837Z,5.80
2023-05-05T10:46:46.622Z,6.57
2023-05-05T10:52:13.947Z,5.78
2023-05-05T10:57:18.721Z,5.80
2023-05-05T11:02:30.078Z,6.28
2023-05-05T11:07:32.792Z,4.57
2023-05-05T11:13:02.523Z,4.55
2023-05-05T11:18:07.968Z,6.05
2023-05-05T11:23:10.203Z,5.10
2023-05-05T11:28:16.998Z,3.70
2023-05-05T11:33:29.024Z,4.10
2023-05-05T11:38:42.554Z,3.30
2023-05-05T11:43:44.322Z,2.80
2023-05-05T11:48:47.688Z,3.95
2023-05-05T11:53:50.103Z,2.92
2023-05-05T11:59:10.947Z,2.70
2023-05-05T12:04:17.218Z,2.70
2023-05-05T12:09:20.564Z,2.85
2023-05-05T12:19:30.042Z,2.72
2023-05-05T12:24:31.953Z,2.72
2023-05-05T12:29:33.720Z,3.42
2023-05-05T12:34:35.765Z,3.92
2023-05-05T12:39:37.679Z,3.40
2023-05-05T12:44:40.424Z,3.28
2023-05-05T12:49:50.331Z,3.50
2023-05-05T12:54:56.895Z,3.10
2023-05-05T12:59:58.682Z,2.50
2023-05-05T13:05:00.393Z,2.95
2023-05-05T13:10:10.935Z,3.00
2023-05-05T13:15:13.147Z,2.92
2023-05-05T13:20:15.359Z,2.40
2023-05-05T13:25:17.181Z,3.08
2023-05-05T13:30:20.687Z,2.88
2023-05-05T13:40:25.760Z,2.30
2023-05-05T13:45:27.692Z,2.33
2023-05-05T13:50:29.390Z,2.17
2023-05-05T13:55:31.200Z,2.15
2023-05-05T14:00:34.565Z,2.90
2023-05-05T14:05:37.428Z,2.25
2023-05-05T14:10:40.328Z,3.55
2023-05-05T14:15:42.374Z,3.60
2023-05-05T14:20:44.128Z,4.43
2023-05-05T14:25:45.974Z,4.32
2023-05-05T14:30:47.714Z,3.30
2023-05-05T14:35:49.666Z,3.50
2023-05-05T14:40:51.392Z,2.83
2023-05-05T14:45:53.219Z,3.17
2023-05-05T14:50:54.947Z,4.13
2023-05-05T14:55:56.781Z,3.75
2023-05-05T15:00:58.954Z,3.10
2023-05-05T15:06:00.990Z,2.75
2023-05-05T15:11:02.745Z,3.03
2023-05-05T15:16:04.991Z,3.05
2023-05-05T15:21:06.859Z,2.97
2023-05-05T15:26:08.836Z,3.42
2023-05-05T15:31:10.738Z,2.95
2023-05-05T15:36:12.751Z,2.50
2023-05-05T15:41:14.770Z,2.72
2023-05-05T15:46:16.615Z,2.70
2023-05-05T15:51:18.469Z,3.10
2023-05-05T15:56:20.355Z,2.70
2023-05-05T16:01:22.240Z,2.55
2023-05-05T16:06:23.998Z,2.60
2023-05-05T16:11:26.930Z,2.50
2023-05-05T16:16:28.911Z,2.60
2023-05-05T16:21:31.016Z,2.67
2023-05-05T16:26:35.300Z,2.40
2023-05-05T16:31:37.333Z,2.00
2023-05-05T16:36:39.149Z,2.22
2023-05-05T16:41:41.412Z,2.28
2023-05-05T16:46:43.272Z,2.10
2023-05-05T16:51:45.073Z,2.20
2023-05-05T16:56:46.814Z,2.10
2023-05-05T17:01:48.753Z,2.78
2023-05-05T17:06:50.875Z,3.45
2023-05-05T17:11:52.837Z,1.48
2023-05-05T17:16:54.597Z,1.52
2023-05-05T17:21:56.779Z,1.60
2023-05-05T17:26:59.531Z,1.75
2023-05-05T17:32:01.303Z,2.45
2023-05-05T17:37:03.283Z,1.70
2023-05-05T17:42:05.220Z,1.40
2023-05-05T17:47:07.838Z,1.30
2023-05-05T17:52:09.618Z,1.40
2023-05-05T17:57:12.596Z,1.25
2023-05-05T18:02:14.469Z,1.55
2023-05-05T18:07:16.432Z,1.15
2023-05-05T18:12:18.143Z,2.00
2023-05-05T18:17:19.908Z,1.73
2023-05-05T18:22:21.834Z,1.60
2023-05-05T18:27:26.464Z,1.55
2023-05-05T18:32:28.210Z,1.17
2023-05-05T18:37:30.035Z,2.35
2023-05-05T18:42:31.946Z,1.50
2023-05-05T18:47:33.822Z,1.90
2023-05-05T18:52:35.766Z,1.77
2023-05-05T18:57:37.468Z,2.30
2023-05-05T19:02:39.263Z,2.90
2023-05-05T19:07:41.002Z,2.00
2023-05-05T19:12:42.734Z,1.90
2023-05-05T19:17:44.564Z,2.45
2023-05-05T19:22:46.714Z,2.65
2023-05-05T19:27:48.395Z,2.10
2023-05-05T19:32:50.193Z,1.80
2023-05-05T19:37:52.051Z,2.92
2023-05-05T19:42:53.816Z,2.95
2023-05-05T19:47:55.542Z,2.92
2023-05-05T19:52:57.798Z,3.72
2023-05-05T19:57:59.532Z,2.40
2023-05-05T20:03:01.980Z,2.47
2023-05-05T20:08:04.079Z,3.58
2023-05-05T20:13:06.212Z,3.50
2023-05-05T20:18:08.133Z,3.42
2023-05-05T20:23:10.052Z,3.80
2023-05-05T20:28:11.919Z,3.00
2023-05-05T20:33:13.875Z,3.30
2023-05-05T20:38:15.779Z,3.30
2023-05-05T20:43:18.047Z,3.17
2023-05-05T20:48:19.902Z,3.20
2023-05-05T20:53:24.249Z,3.17
2023-05-05T20:58:26.100Z,2.40
2023-05-05T21:03:27.869Z,2.30
2023-05-05T21:08:30.346Z,3.55
2023-05-05T21:13:32.097Z,3.90
2023-05-05T21:18:33.799Z,3.80
2023-05-05T21:23:35.495Z,3.95
2023-05-05T21:28:37.235Z,4.25
2023-05-05T21:33:38.969Z,4.35
2023-05-05T21:38:41.093Z,5.10
2023-05-05T21:43:42.817Z,5.20
2023-05-05T21:48:47.294Z,5.03
2023-05-05T21:53:49.036Z,5.00
2023-05-05T21:58:50.771Z,5.35
2023-05-05T22:03:52.662Z,5.82
2023-05-05T22:08:54.643Z,5.78
2023-05-05T22:13:56.484Z,5.70
2023-05-05T22:18:58.257Z,5.03
2023-05-05T22:23:59.993Z,5.75
2023-05-05T22:29:01.752Z,6.88
2023-05-05T22:34:04.069Z,7.22
2023-05-05T22:39:06.401Z,6.05
2023-05-05T22:44:08.412Z,4.85
2023-05-05T22:49:10.383Z,3.90
2023-05-05T22:54:12.319Z,4.72
2023-05-05T22:59:14.217Z,4.07
2023-05-05T23:04:16.516Z,3.78
2023-05-05T23:09:18.318Z,3.50
2023-05-05T23:14:20.030Z,4.63
2023-05-05T23:19:21.771Z,6.13
2023-05-05T23:24:23.502Z,5.50
2023-05-05T23:29:25.393Z,7.00
2023-05-05T23:34:27.148Z,7.85
2023-05-05T23:39:29.138Z,7.05
2023-05-05T23:44:30.889Z,8.73
2023-05-05T23:49:32.649Z,6.10
2023-05-05T23:54:34.380Z,8.35
2023-05-05T23:59:36.134Z,7.88
